Terminal Aerodrome Forecast
Issued by NWS Wakefield, VA

Home | Current Version | Previous Version | Text Only | Print | Product List | Glossary On
Versions: 1 2 3 4 5 6 7 8 9 10 11 12 13 14
000
FTUS41 KAKQ 271902 AAB
TAFECG
TAF AMD
KECG 271902Z 2719/2818 17012G18KT P6SM SCT040 SCT100
     FM280000 19006KT P6SM SCT100 BKN250
     FM280600 19006KT P6SM SCT050 BKN100
     FM281400 20008KT P6SM BKN050=

USA.gov is the U.S. government's official web portal to all federal, state and local government web resources and services.